Time;durP1;ratioP1;P1;durP2;ratioP2;P2;SDS_P1;SDS_P2;PMS_P1;PMS_P2;Temp;Humidity;BMP_temperature;BMP_pressure;BME280_temperature;BME280_humidity;BME280_pressure;Samples;Min_cycle;Max_cycle;Signal;HPM_P1;HPM_P2
2023/08/16 00:01:25;;;;;;;4.28;2.40;;;14.90;99.90;;;;;;5123069;27;20143;-56
2023/08/16 00:03:50;;;;;;;2.65;2.42;;;14.90;99.90;;;;;;5120883;27;20104;-57
2023/08/16 00:06:16;;;;;;;4.03;2.38;;;14.90;99.90;;;;;;5123603;27;20451;-58
2023/08/16 00:08:42;;;;;;;7.90;2.33;;;14.80;99.90;;;;;;5102412;27;20062;-57
2023/08/16 00:11:09;;;;;;;9.38;3.38;;;14.80;99.90;;;;;;5124231;27;20104;-57
2023/08/16 00:13:35;;;;;;;5.55;2.90;;;14.80;99.90;;;;;;5101276;27;20071;-56
2023/08/16 00:16:02;;;;;;;11.68;4.13;;;14.70;99.90;;;;;;5123224;27;20481;-56
2023/08/16 00:20:59;;;;;;;4.05;2.75;;;14.70;99.90;;;;;;5100276;28;20143;-56
2023/08/16 00:23:25;;;;;;;4.32;2.70;;;14.70;99.90;;;;;;5103327;28;20083;-56
2023/08/16 00:25:50;;;;;;;4.10;2.45;;;14.70;99.90;;;;;;5064750;28;20162;-57
2023/08/16 00:28:16;;;;;;;3.47;2.53;;;14.70;99.90;;;;;;5085827;27;20082;-57
2023/08/16 00:30:42;;;;;;;6.63;2.80;;;14.60;99.90;;;;;;5084229;27;20054;-57
2023/08/16 00:33:07;;;;;;;4.70;2.95;;;14.70;99.90;;;;;;5103138;28;20056;-56
2023/08/16 00:35:33;;;;;;;4.57;2.67;;;14.70;99.90;;;;;;5100953;28;20055;-57
2023/08/16 00:37:59;;;;;;;3.45;2.88;;;14.70;99.90;;;;;;5101405;28;20051;-56
2023/08/16 00:40:25;;;;;;;7.53;3.00;;;14.70;99.90;;;;;;5084789;28;20071;-58
2023/08/16 00:42:50;;;;;;;5.65;3.22;;;14.70;99.90;;;;;;5098928;28;20087;-56
2023/08/16 00:45:16;;;;;;;6.00;3.38;;;14.70;99.90;;;;;;5102685;28;20054;-56
2023/08/16 00:47:44;;;;;;;2.97;2.58;;;14.60;99.90;;;;;;5100093;28;20472;-56
2023/08/16 00:50:10;;;;;;;4.15;2.92;;;14.60;99.90;;;;;;5102336;28;20051;-56
2023/08/16 00:52:38;;;;;;;7.63;3.03;;;14.60;99.90;;;;;;5100391;28;20050;-55
2023/08/16 00:55:04;;;;;;;7.72;3.35;;;14.70;99.90;;;;;;5083456;28;20052;-61
2023/08/16 00:57:33;;;;;;;5.55;3.15;;;14.70;99.90;;;;;;5102400;28;20055;-56
2023/08/16 00:59:59;;;;;;;5.72;3.00;;;14.70;99.90;;;;;;5101766;27;20058;-58
2023/08/16 01:02:25;;;;;;;6.13;3.30;;;14.70;99.90;;;;;;5102635;28;20051;-58
2023/08/16 01:04:51;;;;;;;5.50;3.90;;;14.70;99.90;;;;;;5080746;28;20526;-57
2023/08/16 01:07:16;;;;;;;5.57;3.67;;;14.70;99.90;;;;;;5083926;28;20067;-56
2023/08/16 01:09:42;;;;;;;6.18;3.58;;;14.70;99.90;;;;;;5100071;28;20130;-56
2023/08/16 01:12:20;;;;;;;6.05;3.53;;;14.70;99.90;;;;;;5102187;28;20532;-56
2023/08/16 01:14:59;;;;;;;4.80;3.55;;;14.70;99.90;;;;;;5098289;28;20108;-57
2023/08/16 01:17:26;;;;;;;4.95;3.50;;;14.70;99.90;;;;;;5101717;28;20059;-58
2023/08/16 01:19:56;;;;;;;4.65;2.13;;;14.70;99.90;;;;;;5099690;28;20652;-57
2023/08/16 01:22:32;;;;;;;3.47;1.73;;;14.60;99.90;;;;;;5101812;28;20067;-56
2023/08/16 01:25:23;;;;;;;5.05;2.45;;;14.50;99.90;;;;;;5099367;28;20521;-57
2023/08/16 01:27:51;;;;;;;2.60;2.08;;;14.50;99.90;;;;;;5058840;28;1088667;-56
2023/08/16 01:30:20;;;;;;;4.10;3.25;;;14.40;99.90;;;;;;5102892;27;20112;-57
2023/08/16 01:32:47;;;;;;;5.22;3.35;;;14.50;99.90;;;;;;5080523;28;20052;-58
2023/08/16 01:35:14;;;;;;;6.63;3.10;;;14.50;99.90;;;;;;5101230;28;20047;-58
2023/08/16 01:37:41;;;;;;;3.38;2.90;;;14.40;99.90;;;;;;5098922;28;20112;-57
2023/08/16 01:40:11;;;;;;;8.90;3.47;;;14.40;99.90;;;;;;5082696;28;20067;-58
2023/08/16 01:42:41;;;;;;;3.22;2.08;;;14.40;99.90;;;;;;5098705;28;20485;-57
2023/08/16 01:45:08;;;;;;;2.05;1.85;;;13.80;99.90;;;;;;5099098;28;20062;-59
2023/08/16 01:47:35;;;;;;;3.40;2.60;;;14.30;99.90;;;;;;5101873;28;20056;-58
2023/08/16 01:50:01;;;;;;;4.22;2.72;;;14.30;99.90;;;;;;5079680;28;20088;-58
2023/08/16 01:52:32;;;;;;;2.80;1.83;;;14.20;99.90;;;;;;5103352;28;20496;-57
2023/08/16 01:54:58;;;;;;;5.68;2.80;;;14.20;99.90;;;;;;5101099;28;20713;-59
2023/08/16 01:57:23;;;;;;;2.28;1.50;;;14.20;99.90;;;;;;5101965;28;20055;-57
2023/08/16 01:59:49;;;;;;;3.42;1.40;;;14.20;99.90;;;;;;5099797;28;20085;-58
2023/08/16 02:02:15;;;;;;;5.30;2.00;;;14.20;99.90;;;;;;5083848;28;20528;-59
2023/08/16 02:04:40;;;;;;;5.25;2.00;;;14.10;99.90;;;;;;5081545;28;20059;-58
2023/08/16 02:07:06;;;;;;;1.67;1.58;;;14.10;99.90;;;;;;5102457;28;20143;-56
2023/08/16 02:09:32;;;;;;;2.30;1.67;;;14.00;99.90;;;;;;5102077;28;20051;-56
2023/08/16 02:11:58;;;;;;;2.78;2.42;;;14.00;99.90;;;;;;5100293;28;20056;-56
2023/08/16 02:14:24;;;;;;;3.33;2.30;;;13.90;99.90;;;;;;5084029;28;20088;-57
2023/08/16 02:16:50;;;;;;;7.07;2.38;;;13.90;99.90;;;;;;5099731;28;20147;-56
2023/08/16 02:19:16;;;;;;;7.80;3.40;;;13.90;99.90;;;;;;5102425;28;20085;-56
2023/08/16 02:21:41;;;;;;;4.28;3.22;;;13.80;99.90;;;;;;5099736;28;20055;-55
2023/08/16 02:24:07;;;;;;;7.15;4.05;;;13.70;99.90;;;;;;5084057;28;20064;-56
2023/08/16 02:26:33;;;;;;;3.60;3.20;;;13.70;99.90;;;;;;5101096;28;20113;-55
2023/08/16 02:28:59;;;;;;;8.02;3.95;;;13.60;99.90;;;;;;5101130;28;20062;-56
2023/08/16 02:31:24;;;;;;;3.60;2.92;;;13.60;99.90;;;;;;5102021;28;20058;-56
2023/08/16 02:33:50;;;;;;;2.83;2.58;;;13.60;99.90;;;;;;5099872;28;20059;-56
2023/08/16 02:36:16;;;;;;;3.30;2.70;;;13.50;99.90;;;;;;5102466;28;20052;-55
2023/08/16 02:38:42;;;;;;;3.92;3.10;;;13.50;99.90;;;;;;5081208;28;20497;-57
2023/08/16 02:41:07;;;;;;;3.20;2.58;;;13.50;99.90;;;;;;5102226;28;20044;-56
2023/08/16 02:43:33;;;;;;;3.33;2.80;;;13.50;99.90;;;;;;5101193;28;20520;-58
2023/08/16 02:45:59;;;;;;;5.28;2.45;;;13.60;99.90;;;;;;5100643;28;20073;-56
2023/08/16 02:48:24;;;;;;;2.65;2.45;;;13.50;99.90;;;;;;5099904;28;20062;-56
2023/08/16 02:50:50;;;;;;;4.72;2.83;;;13.50;99.90;;;;;;5097760;28;20056;-56
2023/08/16 02:53:16;;;;;;;6.72;3.28;;;13.50;99.90;;;;;;5101650;28;20142;-55
2023/08/16 02:55:42;;;;;;;5.13;3.38;;;13.50;99.90;;;;;;5099636;28;20554;-56
2023/08/16 02:58:07;;;;;;;4.07;3.17;;;13.40;99.90;;;;;;5102365;28;20056;-57
2023/08/16 03:00:33;;;;;;;7.53;3.25;;;13.30;99.90;;;;;;5104291;28;20146;-56
2023/08/16 03:02:59;;;;;;;4.78;3.10;;;13.20;99.90;;;;;;5099972;28;20181;-55
2023/08/16 03:05:24;;;;;;;5.45;3.08;;;13.20;99.90;;;;;;5108442;28;20505;-56
2023/08/16 03:07:50;;;;;;;4.75;3.35;;;13.10;99.90;;;;;;5100046;28;20067;-56
2023/08/16 03:10:16;;;;;;;4.90;3.33;;;13.10;99.90;;;;;;5098868;28;20056;-57
2023/08/16 03:12:42;;;;;;;3.53;3.22;;;13.00;99.90;;;;;;5098100;28;20508;-56
2023/08/16 03:15:08;;;;;;;3.35;2.92;;;12.90;99.90;;;;;;5090412;27;20049;-55
2023/08/16 03:17:33;;;;;;;3.75;3.42;;;12.90;99.90;;;;;;5124651;27;20059;-56
2023/08/16 03:19:59;;;;;;;5.25;3.47;;;12.90;99.90;;;;;;5124272;27;20043;-59
2023/08/16 03:22:25;;;;;;;2.95;2.65;;;12.90;99.90;;;;;;5125907;27;20196;-56
2023/08/16 03:24:50;;;;;;;3.78;3.03;;;12.90;99.90;;;;;;5123851;27;20059;-57
2023/08/16 03:27:16;;;;;;;3.17;2.88;;;12.90;99.90;;;;;;5126161;27;20142;-56
2023/08/16 03:29:42;;;;;;;3.08;2.78;;;13.00;99.90;;;;;;5123155;27;20047;-57
2023/08/16 03:32:08;;;;;;;5.80;3.58;;;12.90;99.90;;;;;;5126200;27;20576;-59
2023/08/16 03:34:33;;;;;;;3.47;2.40;;;12.90;99.90;;;;;;5124665;27;20465;-56
2023/08/16 03:36:59;;;;;;;4.55;2.75;;;12.80;99.90;;;;;;5124368;27;21215;-57
2023/08/16 03:39:25;;;;;;;3.47;2.50;;;12.80;99.90;;;;;;5126420;27;20046;-58
2023/08/16 03:41:51;;;;;;;2.45;2.25;;;12.80;99.90;;;;;;5122371;27;20154;-59
2023/08/16 03:44:16;;;;;;;2.17;1.98;;;12.80;99.90;;;;;;5107095;27;20051;-62
2023/08/16 03:46:42;;;;;;;2.88;2.40;;;12.70;99.90;;;;;;5120383;27;20055;-61
2023/08/16 03:49:08;;;;;;;3.72;2.53;;;12.80;99.90;;;;;;5106493;27;20047;-59
2023/08/16 03:51:35;;;;;;;2.83;2.58;;;12.90;99.90;;;;;;5105317;27;20173;-61
2023/08/16 03:54:01;;;;;;;2.47;2.28;;;12.80;99.90;;;;;;5123624;27;20678;-59
2023/08/16 03:56:27;;;;;;;2.50;2.30;;;12.90;99.90;;;;;;5124940;27;20165;-61
2023/08/16 03:58:53;;;;;;;5.65;1.90;;;12.80;99.90;;;;;;5122373;27;20410;-59
2023/08/16 04:01:19;;;;;;;3.53;1.95;;;12.80;99.90;;;;;;5125602;27;20070;-61
2023/08/16 04:03:46;;;;;;;5.57;2.42;;;12.80;99.90;;;;;;5122834;27;20055;-62
2023/08/16 04:06:12;;;;;;;3.67;2.63;;;12.80;99.90;;;;;;5125622;27;20051;-62
2023/08/16 04:08:40;;;;;;;1.80;1.58;;;12.80;99.90;;;;;;5123056;27;20062;-60
2023/08/16 04:11:06;;;;;;;3.70;1.80;;;12.80;99.90;;;;;;5105699;27;20047;-57
2023/08/16 04:13:33;;;;;;;2.05;1.88;;;12.90;99.90;;;;;;5125115;27;20054;-54
2023/08/16 04:15:58;;;;;;;1.83;1.73;;;12.90;99.90;;;;;;5123367;27;20055;-58
2023/08/16 04:18:26;;;;;;;2.22;1.88;;;12.80;99.90;;;;;;5124833;27;20058;-57
2023/08/16 04:20:51;;;;;;;2.67;2.38;;;12.80;99.90;;;;;;5099911;27;20481;-56
2023/08/16 04:23:17;;;;;;;4.90;2.20;;;12.80;99.90;;;;;;5124976;27;20063;-57
2023/08/16 04:25:43;;;;;;;2.25;1.95;;;12.80;99.90;;;;;;5121817;27;20134;-57
2023/08/16 04:28:08;;;;;;;3.88;1.77;;;12.80;99.90;;;;;;5089602;27;20824;-57
2023/08/16 04:30:34;;;;;;;2.60;1.60;;;12.80;99.90;;;;;;5123540;27;20051;-55
2023/08/16 04:33:00;;;;;;;2.47;1.90;;;12.80;99.90;;;;;;5123198;27;20059;-59
2023/08/16 04:35:26;;;;;;;3.05;1.55;;;12.70;99.90;;;;;;5124700;27;20047;-57
2023/08/16 04:37:51;;;;;;;3.38;2.03;;;12.80;99.90;;;;;;5120772;27;20130;-57
2023/08/16 04:40:17;;;;;;;4.03;1.83;;;12.90;99.90;;;;;;5123963;27;20047;-56
2023/08/16 04:42:43;;;;;;;2.58;1.45;;;12.90;99.90;;;;;;5122123;27;20518;-57
2023/08/16 04:45:09;;;;;;;4.60;2.13;;;12.90;99.90;;;;;;5125025;27;20108;-58
2023/08/16 04:47:35;;;;;;;2.33;1.40;;;12.90;99.90;;;;;;5122534;27;20123;-55
2023/08/16 04:50:03;;;;;;;1.85;1.75;;;12.90;99.90;;;;;;5122756;27;20610;-56
2023/08/16 04:52:35;;;;;;;2.95;2.30;;;12.90;99.90;;;;;;5106258;27;20112;-56
2023/08/16 04:55:00;;;;;;;3.45;1.75;;;13.00;99.90;;;;;;5103924;27;20047;-57
2023/08/16 04:57:27;;;;;;;3.13;2.47;;;13.00;99.90;;;;;;5120426;27;20516;-57
2023/08/16 04:59:52;;;;;;;4.10;3.00;;;13.20;99.90;;;;;;5114621;27;20175;-56
2023/08/16 05:02:18;;;;;;;2.90;2.35;;;13.20;99.90;;;;;;5123795;27;20405;-57
2023/08/16 05:04:44;;;;;;;3.25;1.92;;;13.20;99.90;;;;;;5121693;27;20154;-57
2023/08/16 05:07:09;;;;;;;2.72;1.40;;;13.30;99.90;;;;;;5124020;27;20074;-57
2023/08/16 05:09:36;;;;;;;3.83;2.40;;;13.40;99.90;;;;;;5121229;27;20078;-56
2023/08/16 05:12:02;;;;;;;2.25;1.83;;;13.40;99.90;;;;;;5121242;27;20055;-57
2023/08/16 05:14:28;;;;;;;2.25;2.00;;;13.50;99.90;;;;;;5123579;27;20051;-58
2023/08/16 05:16:54;;;;;;;2.72;2.35;;;13.60;99.90;;;;;;5121329;27;20063;-57
2023/08/16 05:19:19;;;;;;;4.03;3.10;;;13.60;99.90;;;;;;5119863;27;20210;-56
2023/08/16 05:21:45;;;;;;;3.88;2.88;;;13.70;99.90;;;;;;5118479;27;20058;-57
2023/08/16 05:24:11;;;;;;;3.50;2.90;;;13.80;99.90;;;;;;5123130;27;20055;-56
2023/08/16 05:26:37;;;;;;;6.22;3.67;;;13.80;99.90;;;;;;5102818;27;20057;-56
2023/08/16 05:29:02;;;;;;;4.07;2.80;;;13.90;99.90;;;;;;5122521;27;20085;-56
2023/08/16 05:31:32;;;;;;;6.47;2.97;;;14.00;99.90;;;;;;5123211;27;20058;-56
2023/08/16 05:33:58;;;;;;;4.13;2.80;;;14.10;99.90;;;;;;5104356;27;20887;-56
2023/08/16 05:38:54;;;;;;;5.75;3.22;;;14.40;99.90;;;;;;5120658;27;20081;-56
2023/08/16 05:41:19;;;;;;;3.28;2.97;;;14.60;99.90;;;;;;5104153;27;20439;-58
2023/08/16 05:43:45;;;;;;;4.07;3.25;;;14.60;99.90;;;;;;5077620;27;1152490;-57
2023/08/16 05:46:10;;;;;;;4.50;3.20;;;14.70;99.90;;;;;;5102298;27;20056;-56
2023/08/16 05:48:36;;;;;;;6.78;3.03;;;14.70;99.90;;;;;;5121733;27;20083;-58
2023/08/16 05:51:02;;;;;;;4.78;4.00;;;14.80;99.90;;;;;;5121134;27;20054;-57
2023/08/16 05:53:27;;;;;;;4.97;3.47;;;15.00;99.90;;;;;;5104583;27;20066;-58
2023/08/16 05:55:53;;;;;;;6.32;4.57;;;15.20;99.90;;;;;;5093332;27;20046;-57
2023/08/16 05:58:20;;;;;;;5.47;4.75;;;15.40;99.90;;;;;;5103971;27;20073;-56
2023/08/16 06:00:47;;;;;;;5.85;5.28;;;15.50;99.90;;;;;;5119237;27;20059;-58
2023/08/16 06:03:14;;;;;;;5.13;3.83;;;15.70;99.90;;;;;;5123314;27;20099;-56
2023/08/16 06:05:39;;;;;;;5.40;4.55;;;16.00;99.90;;;;;;5119631;27;20059;-56
2023/08/16 06:08:05;;;;;;;5.53;4.47;;;16.20;99.90;;;;;;5099895;27;20051;-58
2023/08/16 06:10:32;;;;;;;5.80;3.97;;;16.50;99.90;;;;;;5119611;27;20050;-56
2023/08/16 06:12:58;;;;;;;7.68;5.18;;;16.70;99.90;;;;;;5120908;27;20058;-56
2023/08/16 06:15:23;;;;;;;5.00;4.00;;;17.00;99.90;;;;;;5103103;27;20051;-56
2023/08/16 06:17:49;;;;;;;8.45;5.50;;;17.30;99.90;;;;;;5119223;27;20069;-56
2023/08/16 06:20:15;;;;;;;6.68;4.32;;;17.50;99.90;;;;;;5121802;27;20518;-56
2023/08/16 06:22:40;;;;;;;6.85;4.90;;;17.50;99.90;;;;;;5119591;27;20059;-56
2023/08/16 06:25:07;;;;;;;6.38;5.63;;;17.60;99.90;;;;;;5100160;27;20496;-57
2023/08/16 06:27:33;;;;;;;10.88;6.40;;;17.60;99.90;;;;;;5121256;27;20488;-54
2023/08/16 06:30:00;;;;;;;11.73;6.30;;;17.60;99.90;;;;;;5120776;27;20051;-56
2023/08/16 06:32:25;;;;;;;10.35;6.15;;;17.60;99.90;;;;;;5121894;27;20059;-56
2023/08/16 06:34:51;;;;;;;7.95;5.40;;;17.50;99.90;;;;;;5119423;27;20065;-57
2023/08/16 06:37:17;;;;;;;7.38;5.70;;;17.40;99.90;;;;;;5121540;27;20058;-55
2023/08/16 06:39:43;;;;;;;9.27;4.88;;;17.50;99.90;;;;;;5118535;27;20089;-55
2023/08/16 06:42:09;;;;;;;7.85;5.10;;;17.70;99.90;;;;;;5105538;27;20094;-56
2023/08/16 06:44:35;;;;;;;6.22;5.00;;;17.70;99.90;;;;;;5120871;27;20063;-58
2023/08/16 06:47:01;;;;;;;6.40;4.82;;;18.00;99.90;;;;;;5118077;27;20147;-56
2023/08/16 06:49:27;;;;;;;7.00;4.32;;;18.20;99.90;;;;;;5112575;27;20717;-57
2023/08/16 06:51:53;;;;;;;5.00;4.50;;;18.30;99.90;;;;;;5118335;27;20067;-58
2023/08/16 06:54:18;;;;;;;6.78;4.30;;;18.40;99.90;;;;;;5103786;28;20051;-57
2023/08/16 06:56:45;;;;;;;4.95;4.00;;;18.50;99.90;;;;;;5118462;27;20081;-56
2023/08/16 06:59:11;;;;;;;6.05;3.83;;;18.70;99.90;;;;;;5120351;27;20055;-56
2023/08/16 07:01:36;;;;;;;4.38;3.50;;;18.80;99.90;;;;;;5117852;27;20097;-56
2023/08/16 07:04:02;;;;;;;8.25;4.10;;;18.90;99.90;;;;;;5100147;28;20062;-56
2023/08/16 07:06:32;;;;;;;4.13;3.72;;;19.10;99.90;;;;;;5120390;27;20131;-57
2023/08/16 07:08:58;;;;;;;4.47;3.70;;;19.60;99.90;;;;;;5116737;27;20047;-57
2023/08/16 07:11:25;;;;;;;6.32;4.25;;;19.60;99.90;;;;;;5120321;27;20432;-56
2023/08/16 07:13:51;;;;;;;3.72;3.42;;;19.60;99.90;;;;;;5117094;27;20074;-56
2023/08/16 07:16:17;;;;;;;8.38;3.25;;;19.60;99.90;;;;;;5120707;27;20059;-55
2023/08/16 07:18:43;;;;;;;6.07;3.20;;;19.80;99.90;;;;;;5116186;27;20572;-56
2023/08/16 07:21:11;;;;;;;5.25;3.30;;;19.80;99.90;;;;;;5121538;27;20062;-56
2023/08/16 07:23:37;;;;;;;3.53;3.17;;;20.00;99.90;;;;;;5120100;27;20058;-55
2023/08/16 07:26:03;;;;;;;4.40;3.20;;;20.30;99.90;;;;;;5118047;27;20074;-56
2023/08/16 07:28:33;;;;;;;4.55;3.15;;;20.40;99.90;;;;;;5121378;27;20055;-56
2023/08/16 07:30:58;;;;;;;5.28;3.28;;;20.60;99.90;;;;;;5117932;27;20413;-56
2023/08/16 07:33:24;;;;;;;4.22;3.33;;;20.50;99.90;;;;;;5120488;27;20067;-56
2023/08/16 07:35:50;;;;;;;5.72;3.83;;;20.40;99.90;;;;;;5118271;27;20078;-56
2023/08/16 07:38:16;;;;;;;4.22;3.20;;;20.60;99.90;;;;;;5121878;27;20130;-56
2023/08/16 07:40:47;;;;;;;4.93;3.78;;;20.50;99.90;;;;;;5118808;27;20047;-57
2023/08/16 07:43:14;;;;;;;3.47;2.35;;;20.80;99.90;;;;;;5119860;27;20062;-58
2023/08/16 07:45:39;;;;;;;4.68;1.80;;;20.80;99.90;;;;;;5103140;27;20051;-56
2023/08/16 07:48:05;;;;;;;3.60;1.88;;;20.90;99.90;;;;;;5120415;27;20051;-57
2023/08/16 07:50:33;;;;;;;4.90;1.70;;;21.10;99.90;;;;;;5120815;27;20116;-61
2023/08/16 07:52:58;;;;;;;5.13;1.60;;;21.50;99.90;;;;;;5119076;27;20492;-57
2023/08/16 07:57:54;;;;;;;3.33;2.03;;;22.30;99.90;;;;;;5118923;27;20062;-56
2023/08/16 08:00:20;;;;;;;5.10;2.50;;;22.80;99.90;;;;;;5121515;28;20059;-57
2023/08/16 08:02:46;;;;;;;5.75;1.88;;;23.30;99.90;;;;;;5102472;27;20059;-57
2023/08/16 08:05:11;;;;;;;4.65;1.52;;;23.40;99.90;;;;;;5062514;27;20054;-58
2023/08/16 08:07:37;;;;;;;5.15;2.15;;;24.10;99.90;;;;;;5121946;27;20055;-56
2023/08/16 08:10:03;;;;;;;2.88;1.80;;;24.40;99.90;;;;;;5122382;27;20137;-61
2023/08/16 08:12:33;;;;;;;2.53;1.77;;;24.20;99.90;;;;;;5124105;27;20481;-64
2023/08/16 08:14:58;;;;;;;0.90;0.90;;;24.60;99.90;;;;;;5122454;27;20403;-59
2023/08/16 08:17:24;;;;;;;1.85;1.30;;;25.20;99.90;;;;;;5105156;27;20056;-60
2023/08/16 08:19:50;;;;;;;5.07;1.83;;;25.00;99.90;;;;;;5119659;27;20805;-56
2023/08/16 08:22:16;;;;;;;2.83;1.23;;;25.00;99.90;;;;;;5124829;27;20405;-61
2023/08/16 08:24:42;;;;;;;2.28;1.08;;;25.20;99.90;;;;;;5103187;27;20090;-64
2023/08/16 08:27:07;;;;;;;1.48;1.30;;;25.50;99.90;;;;;;5122025;27;20083;-65
2023/08/16 08:29:33;;;;;;;2.97;1.30;;;25.70;99.90;;;;;;5122973;27;20055;-55
2023/08/16 08:31:59;;;;;;;6.32;1.45;;;25.80;99.90;;;;;;5103468;27;20055;-57
2023/08/16 08:34:26;;;;;;;1.58;0.70;;;26.30;99.90;;;;;;5121225;27;20067;-57
2023/08/16 08:36:52;;;;;;;4.00;1.50;;;26.40;99.90;;;;;;5121599;27;20054;-57
2023/08/16 08:39:19;;;;;;;2.03;1.33;;;25.50;99.90;;;;;;5100454;28;20059;-57
2023/08/16 08:41:48;;;;;;;0.80;0.80;;;25.30;99.90;;;;;;5118064;27;20208;-58
2023/08/16 08:44:19;;;;;;;3.53;1.27;;;26.10;99.90;;;;;;5123542;27;20055;-58
2023/08/16 08:46:46;;;;;;;3.15;1.40;;;26.20;99.90;;;;;;5084096;27;20547;-57
2023/08/16 08:49:16;;;;;;;5.82;0.90;;;26.50;99.90;;;;;;5120159;27;20058;-57
2023/08/16 08:51:43;;;;;;;1.35;0.70;;;26.80;99.90;;;;;;5093370;27;20115;-57
2023/08/16 08:54:08;;;;;;;3.10;1.15;;;26.50;99.90;;;;;;5121171;27;20059;-57
2023/08/16 08:56:34;;;;;;;2.65;0.55;;;26.10;99.90;;;;;;5102516;27;20099;-61
2023/08/16 08:59:01;;;;;;;1.98;1.00;;;26.60;99.90;;;;;;5112109;27;20064;-58
2023/08/16 09:04:03;;;;;;;2.35;0.85;;;26.90;99.90;;;;;;5121324;27;20075;-58
2023/08/16 09:06:34;;;;;;;0.80;0.70;;;27.40;99.90;;;;;;5104706;27;20051;-56
2023/08/16 09:09:00;;;;;;;1.52;0.75;;;27.70;99.90;;;;;;5119957;27;20662;-57
2023/08/16 09:11:28;;;;;;;2.65;1.25;;;27.10;99.90;;;;;;5119358;27;20046;-58
2023/08/16 09:13:54;;;;;;;1.25;0.90;;;28.10;99.90;;;;;;5119201;27;20098;-58
2023/08/16 09:16:20;;;;;;;4.35;1.80;;;28.30;99.90;;;;;;5120038;27;20047;-58
2023/08/16 09:18:48;;;;;;;3.45;0.90;;;28.40;99.90;;;;;;5118894;27;20416;-57
2023/08/16 09:21:16;;;;;;;1.75;0.85;;;28.30;99.90;;;;;;5118398;27;20096;-57
2023/08/16 09:23:41;;;;;;;2.35;0.90;;;28.40;99.90;;;;;;5118327;27;20058;-57
2023/08/16 09:26:18;;;;;;;1.25;0.75;;;28.50;99.90;;;;;;5121419;27;20055;-57
2023/08/16 09:28:44;;;;;;;3.35;1.30;;;28.20;99.90;;;;;;5117672;27;20444;-57
2023/08/16 09:31:10;;;;;;;1.45;0.80;;;28.40;99.90;;;;;;5103360;27;20065;-57
2023/08/16 09:33:38;;;;;;;4.13;1.20;;;28.40;99.90;;;;;;5114667;27;20166;-58
2023/08/16 09:36:04;;;;;;;2.17;0.98;;;28.20;99.90;;;;;;5101630;27;20055;-58
2023/08/16 09:38:40;;;;;;;0.98;0.52;;;27.90;99.90;;;;;;5121792;27;20055;-58
2023/08/16 09:41:14;;;;;;;2.88;1.20;;;28.00;99.90;;;;;;5118269;27;20071;-57
2023/08/16 09:43:39;;;;;;;1.85;1.10;;;27.80;99.90;;;;;;5101507;27;20084;-63
2023/08/16 09:46:05;;;;;;;1.63;0.98;;;28.00;99.90;;;;;;5122650;27;20051;-63
2023/08/16 09:48:33;;;;;;;2.47;0.98;;;27.80;99.90;;;;;;5119449;27;20047;-65
2023/08/16 09:51:03;;;;;;;2.80;1.50;;;27.60;99.90;;;;;;5119552;27;20436;-57
2023/08/16 09:53:32;;;;;;;2.90;1.50;;;27.70;99.90;;;;;;5121406;27;20058;-57
2023/08/16 09:56:01;;;;;;;3.80;1.30;;;27.80;99.90;;;;;;5105933;27;20170;-57
2023/08/16 09:58:32;;;;;;;1.70;1.45;;;27.90;99.90;;;;;;5123115;27;20058;-57
2023/08/16 10:00:58;;;;;;;2.85;1.88;;;28.10;99.90;;;;;;5079650;27;1087024;-57
2023/08/16 10:03:24;;;;;;;2.67;2.00;;;28.30;99.90;;;;;;5123145;27;20051;-57
2023/08/16 10:05:52;;;;;;;4.38;2.17;;;28.10;99.90;;;;;;5119460;27;20051;-57
2023/08/16 10:08:19;;;;;;;1.98;1.83;;;27.90;99.90;;;;;;5122820;27;20070;-57
2023/08/16 10:10:46;;;;;;;1.83;1.73;;;28.10;99.90;;;;;;5119701;27;20059;-58
2023/08/16 10:13:12;;;;;;;5.47;1.45;;;28.60;99.90;;;;;;5119648;27;20055;-57
2023/08/16 10:15:42;;;;;;;4.68;2.05;;;28.80;99.90;;;;;;5100349;27;20108;-57
2023/08/16 10:18:11;;;;;;;2.80;1.67;;;28.40;99.90;;;;;;5102976;27;20059;-57
2023/08/16 10:20:39;;;;;;;4.78;1.60;;;28.80;99.90;;;;;;5119738;27;20130;-58
2023/08/16 10:23:08;;;;;;;2.70;1.13;;;29.10;99.90;;;;;;5118196;27;20062;-57
2023/08/16 10:25:47;;;;;;;2.42;1.35;;;29.10;99.90;;;;;;5118089;27;20066;-56
2023/08/16 10:28:18;;;;;;;1.15;0.60;;;28.90;99.90;;;;;;5118576;27;20105;-56
2023/08/16 10:30:46;;;;;;;12.23;1.85;;;29.10;99.90;;;;;;5117117;27;20051;-58
2023/08/16 10:33:37;;;;;;;3.20;0.80;;;29.20;99.90;;;;;;5080900;27;20065;-59
2023/08/16 10:36:04;;;;;;;1.88;0.45;;;29.50;99.90;;;;;;5118296;27;20055;-58
2023/08/16 10:38:41;;;;;;;1.30;0.70;;;29.30;99.90;;;;;;5121340;27;20229;-59
2023/08/16 10:41:15;;;;;;;3.30;0.95;;;28.30;99.90;;;;;;5113734;27;20536;-58
2023/08/16 10:43:49;;;;;;;0.70;0.57;;;28.60;99.90;;;;;;5117364;27;20047;-57
2023/08/16 10:46:32;;;;;;;1.95;1.15;;;28.70;99.90;;;;;;5089434;28;20082;-56
2023/08/16 10:49:02;;;;;;;1.10;0.75;;;29.10;99.90;;;;;;5107952;27;20055;-57
2023/08/16 10:51:32;;;;;;;1.42;0.80;;;29.50;99.90;;;;;;5121140;27;20054;-57
2023/08/16 10:53:58;;;;;;;2.15;0.57;;;29.50;99.90;;;;;;5118246;27;20051;-57
2023/08/16 10:56:24;;;;;;;1.20;0.68;;;29.50;99.90;;;;;;5095540;28;21467;-57
2023/08/16 10:58:51;;;;;;;1.17;0.60;;;29.60;99.90;;;;;;5069308;28;20052;-58
2023/08/16 11:01:18;;;;;;;2.05;1.17;;;29.70;99.90;;;;;;5085216;28;20829;-63
2023/08/16 11:03:46;;;;;;;1.65;0.57;;;28.80;99.90;;;;;;5096550;28;20059;-60
2023/08/16 11:06:15;;;;;;;0.88;0.50;;;29.40;99.90;;;;;;5100679;28;20051;-58
2023/08/16 11:08:42;;;;;;;1.02;0.70;;;29.50;99.90;;;;;;5097709;28;20056;-57
2023/08/16 11:11:09;;;;;;;1.15;0.47;;;29.10;99.90;;;;;;5099544;28;20113;-57
2023/08/16 11:13:35;;;;;;;2.90;0.77;;;29.30;99.90;;;;;;5119401;27;20486;-58
2023/08/16 11:16:00;;;;;;;0.88;0.60;;;29.20;99.90;;;;;;5119873;27;20055;-63
2023/08/16 11:18:32;;;;;;;1.80;0.88;;;29.10;99.90;;;;;;5105779;28;20059;-58
2023/08/16 11:20:59;;;;;;;2.22;0.93;;;29.30;99.90;;;;;;5117804;27;20043;-58
2023/08/16 11:23:32;;;;;;;0.90;0.70;;;29.50;99.90;;;;;;5120998;27;20058;-59
2023/08/16 11:26:06;;;;;;;2.30;0.65;;;29.90;99.90;;;;;;5092230;28;20056;-58
2023/08/16 11:28:32;;;;;;;;;;;30.40;99.90;;;;;;5112897;27;20066;-57
2023/08/16 11:30:59;;;;;;;1.25;0.95;;;32.70;99.90;;;;;;5095324;28;19923;-57
2023/08/16 11:33:32;;;;;;;1.50;0.80;;;34.70;98.40;;;;;;5116767;27;20159;-57
2023/08/16 11:36:00;;;;;;;1.08;0.65;;;35.80;96.30;;;;;;5122235;27;20162;-57
2023/08/16 11:38:27;;;;;;;2.55;1.02;;;34.30;96.50;;;;;;5126005;27;20086;-60
2023/08/16 11:40:53;;;;;;;2.38;0.93;;;34.00;96.10;;;;;;5122554;27;20504;-57
2023/08/16 11:43:26;;;;;;;3.10;1.40;;;34.80;95.30;;;;;;5123058;27;20420;-57
2023/08/16 11:45:52;;;;;;;0.70;0.70;;;36.70;95.20;;;;;;5121888;27;20055;-57
2023/08/16 11:48:18;;;;;;;1.83;1.00;;;37.90;94.90;;;;;;5124168;27;20059;-58
2023/08/16 11:50:44;;;;;;;2.83;0.90;;;38.80;94.10;;;;;;5116340;27;20075;-57
2023/08/16 11:53:14;;;;;;;0.80;0.65;;;38.50;93.50;;;;;;5097905;27;20069;-62
2023/08/16 11:55:41;;;;;;;1.70;1.30;;;36.80;93.60;;;;;;5114279;27;20889;-57
2023/08/16 11:58:11;;;;;;;2.72;1.20;;;37.50;93.20;;;;;;5100505;27;20047;-58
2023/08/16 12:00:38;;;;;;;2.35;0.70;;;38.10;92.90;;;;;;5119329;27;20047;-57
2023/08/16 12:03:07;;;;;;;6.32;1.45;;;40.00;92.20;;;;;;5114413;27;20087;-58
2023/08/16 12:05:36;;;;;;;1.10;0.98;;;40.60;91.90;;;;;;5119188;27;20066;-56
2023/08/16 12:08:06;;;;;;;3.00;0.88;;;40.80;90.90;;;;;;5116796;27;20054;-58
2023/08/16 12:10:33;;;;;;;0.95;0.70;;;41.90;90.30;;;;;;5119551;27;20050;-58
2023/08/16 12:13:12;;;;;;;0.65;0.57;;;39.40;90.40;;;;;;5118683;27;20206;-58
2023/08/16 12:15:40;;;;;;;1.50;0.70;;;38.00;90.80;;;;;;5097801;27;20046;-58
2023/08/16 12:18:06;;;;;;;1.23;0.60;;;35.90;91.30;;;;;;5125609;27;20046;-57
2023/08/16 12:20:33;;;;;;;1.02;0.90;;;34.00;92.50;;;;;;5122760;27;20047;-57
2023/08/16 12:22:58;;;;;;;1.23;0.35;;;36.90;92.00;;;;;;5123109;27;20051;-57
2023/08/16 12:25:25;;;;;;;1.23;0.70;;;36.00;91.50;;;;;;5122233;27;20055;-58
2023/08/16 12:27:50;;;;;;;6.03;0.80;;;34.20;92.40;;;;;;5119893;27;20116;-57
2023/08/16 12:30:16;;;;;;;2.58;0.82;;;33.50;93.20;;;;;;5122584;27;20047;-58
2023/08/16 12:32:42;;;;;;;0.85;0.50;;;36.50;92.40;;;;;;5120681;27;20581;-57
2023/08/16 12:35:08;;;;;;;1.58;0.73;;;37.80;91.20;;;;;;5123008;27;20132;-57
2023/08/16 12:37:34;;;;;;;0.82;0.32;;;39.30;90.80;;;;;;5120192;27;20047;-57
2023/08/16 12:40:00;;;;;;;2.35;0.70;;;40.80;90.00;;;;;;5121277;27;20055;-57
2023/08/16 12:42:25;;;;;;;1.30;0.82;;;40.70;88.70;;;;;;5123712;27;20424;-57
2023/08/16 12:44:52;;;;;;;1.58;0.60;;;41.60;88.00;;;;;;5120571;27;20070;-57
2023/08/16 12:47:18;;;;;;;1.30;0.60;;;41.60;86.60;;;;;;5120643;27;20054;-58
2023/08/16 12:49:43;;;;;;;1.13;0.40;;;42.30;85.90;;;;;;5118543;27;20062;-58
2023/08/16 12:52:09;;;;;;;2.53;0.70;;;42.80;84.90;;;;;;5103254;27;20078;-60
2023/08/16 12:54:35;;;;;;;3.33;0.80;;;41.90;85.30;;;;;;5100098;27;20046;-60